createdAt,value
2023-04-20T00:00:33.792Z,66.36
2023-04-20T00:05:55.669Z,67.75
2023-04-20T00:10:59.279Z,67.04
2023-04-20T00:16:46.797Z,67.46
2023-04-20T00:21:50.671Z,67.47
2023-04-20T00:27:19.984Z,67.82
2023-04-20T00:32:24.350Z,68.35
2023-04-20T00:37:56.799Z,68.52
2023-04-20T00:43:10.776Z,66.75
2023-04-20T00:48:15.326Z,65.97
2023-04-20T00:53:26.987Z,65.85
2023-04-20T00:58:34.532Z,66.18
2023-04-20T01:03:40.365Z,65.80
2023-04-20T01:08:52.214Z,65.16
2023-04-20T01:13:55.747Z,64.36
2023-04-20T01:18:59.259Z,64.12
2023-04-20T01:24:27.981Z,64.60
2023-04-20T01:29:57.295Z,63.94
2023-04-20T01:35:14.429Z,63.49
2023-04-20T01:40:18.772Z,63.31
2023-04-20T01:45:22.606Z,64.30
2023-04-20T01:51:16.306Z,64.15
2023-04-20T01:56:31.735Z,64.87
2023-04-20T02:01:59.957Z,65.15
2023-04-20T02:07:06.998Z,65.24
2023-04-20T02:12:11.884Z,66.02
2023-04-20T02:17:18.546Z,66.17
2023-04-20T02:23:38.052Z,66.57
2023-04-20T02:29:32.282Z,67.27
2023-04-20T02:34:41.803Z,67.49
2023-04-20T02:40:10.818Z,67.48
2023-04-20T02:45:18.243Z,67.77
2023-04-20T02:50:26.869Z,67.60
2023-04-20T02:55:43.901Z,67.94
2023-04-20T03:01:39.512Z,68.00
2023-04-20T03:07:08.160Z,67.86
2023-04-20T03:12:11.677Z,68.51
2023-04-20T03:17:53.746Z,68.61
2023-04-20T03:23:23.117Z,69.13
2023-04-20T03:28:27.874Z,69.40
2023-04-20T03:33:33.225Z,69.56
2023-04-20T03:38:55.098Z,69.91
2023-04-20T03:44:00.446Z,70.05
2023-04-20T03:49:40.919Z,70.15
2023-04-20T03:55:35.028Z,70.22
2023-04-20T04:01:08.980Z,70.03
2023-04-20T04:06:12.801Z,70.11
2023-04-20T04:11:22.046Z,70.22
2023-04-20T04:17:17.522Z,70.46
2023-04-20T04:22:47.522Z,70.20
2023-04-20T04:38:33.658Z,70.09
2023-04-20T04:43:43.091Z,70.22
2023-04-20T04:48:47.033Z,70.23
2023-04-20T04:54:17.256Z,69.69
2023-04-20T05:00:14.326Z,69.64
2023-04-20T05:05:18.519Z,68.89
2023-04-20T05:10:47.381Z,69.13
2023-04-20T05:22:54.263Z,68.36
2023-04-20T05:28:55.125Z,67.94
2023-04-20T05:33:59.643Z,67.57
2023-04-20T05:45:27.775Z,67.04
2023-04-20T05:50:31.699Z,66.75
2023-04-20T05:56:22.020Z,66.36
2023-04-20T06:01:26.245Z,65.97
2023-04-20T06:13:38.603Z,65.08
2023-04-20T06:18:46.969Z,65.20
2023-04-20T06:24:07.794Z,64.94
2023-04-20T06:37:24.786Z,63.90
2023-04-20T06:43:19.158Z,64.18
2023-04-20T06:48:32.045Z,63.26
2023-04-20T07:08:16.322Z,62.33
2023-04-20T07:14:11.846Z,61.72
2023-04-20T07:20:13.223Z,61.05
2023-04-20T07:25:18.204Z,59.39
2023-04-20T07:31:44.658Z,59.85
2023-04-20T07:36:48.389Z,63.34
2023-04-20T07:41:59.527Z,62.65
2023-04-20T07:47:04.866Z,60.99
2023-04-20T07:52:26.886Z,59.89
2023-04-20T07:57:31.408Z,57.55
2023-04-20T08:02:41.715Z,59.72
2023-04-20T08:08:13.388Z,60.40
2023-04-20T08:13:17.106Z,59.97
2023-04-20T08:18:47.257Z,60.22
2023-04-20T08:24:10.842Z,59.19
2023-04-20T08:29:43.654Z,58.43
2023-04-20T08:34:47.879Z,57.86
2023-04-20T08:39:52.565Z,56.89
2023-04-20T08:44:59.627Z,56.78
2023-04-20T08:50:14.313Z,55.67
2023-04-20T08:55:42.824Z,54.61
2023-04-20T09:01:05.819Z,54.65
2023-04-20T09:06:18.760Z,53.98
2023-04-20T09:12:10.681Z,53.32
2023-04-20T09:17:41.725Z,52.60
2023-04-20T09:22:46.203Z,51.64
2023-04-20T09:28:17.877Z,49.36
2023-04-20T09:33:29.724Z,48.46
2023-04-20T09:39:13.383Z,48.32
2023-04-20T09:44:21.660Z,48.07
2023-04-20T09:49:55.094Z,47.72
2023-04-20T09:55:04.334Z,48.06
2023-04-20T10:00:12.989Z,45.68
2023-04-20T10:05:17.431Z,44.65
2023-04-20T10:10:24.478Z,45.75
2023-04-20T10:32:39.993Z,43.33
2023-04-20T10:38:36.346Z,43.71
2023-04-20T10:50:51.977Z,40.23
2023-04-20T10:56:06.405Z,39.71
2023-04-20T11:01:28.684Z,37.31
2023-04-20T11:07:51.416Z,37.08
2023-04-20T11:13:00.157Z,37.09
2023-04-20T11:18:14.874Z,35.70
2023-04-20T11:23:47.123Z,35.46
2023-04-20T11:28:55.435Z,34.30
2023-04-20T11:34:09.729Z,34.80
2023-04-20T11:39:20.832Z,35.23
2023-04-20T11:52:13.623Z,34.95
2023-04-20T11:58:20.107Z,35.15
2023-04-20T12:13:57.773Z,36.04
2023-04-20T12:19:01.537Z,35.16
2023-04-20T12:24:17.586Z,35.73
2023-04-20T12:29:21.445Z,35.31
2023-04-20T12:34:27.786Z,34.79
2023-04-20T12:39:31.380Z,34.50
2023-04-20T12:44:44.308Z,34.32
2023-04-20T12:49:48.249Z,33.98
2023-04-20T12:55:29.545Z,34.66
2023-04-20T13:00:33.270Z,35.05
2023-04-20T13:05:37.097Z,35.17
2023-04-20T13:10:44.649Z,33.48
2023-04-20T13:15:48.555Z,33.74
2023-04-20T13:20:52.710Z,33.84
2023-04-20T13:25:59.508Z,34.02
2023-04-20T13:31:03.500Z,34.18
2023-04-20T13:36:09.711Z,34.19
2023-04-20T13:41:13.642Z,34.38
2023-04-20T14:01:11.702Z,35.64
2023-04-20T14:06:16.821Z,35.37
2023-04-20T14:11:48.120Z,35.71
2023-04-20T14:17:18.091Z,36.24
2023-04-20T14:32:31.588Z,35.01
2023-04-20T14:38:26.483Z,35.17
2023-04-20T14:43:32.719Z,36.00
2023-04-20T14:49:34.592Z,36.61
2023-04-20T14:55:04.548Z,37.20
2023-04-20T15:01:07.454Z,37.37
2023-04-20T15:07:36.413Z,34.32
2023-04-20T15:12:40.462Z,34.04
2023-04-20T15:17:48.867Z,34.73
2023-04-20T15:22:52.688Z,35.72
2023-04-20T15:27:56.393Z,36.44
2023-04-20T15:33:05.246Z,36.99
2023-04-20T15:38:12.974Z,37.72
2023-04-20T15:43:21.496Z,36.35
2023-04-20T15:48:26.142Z,34.22
2023-04-20T15:53:30.373Z,32.33
2023-04-20T15:58:34.116Z,30.50
2023-04-20T16:03:39.599Z,30.06
2023-04-20T16:08:43.840Z,30.65
2023-04-20T16:13:47.884Z,31.77
2023-04-20T16:18:52.298Z,32.03
2023-04-20T16:25:19.274Z,32.50
2023-04-20T16:30:23.397Z,32.59
2023-04-20T16:35:52.827Z,32.81
2023-04-20T16:40:56.559Z,32.46
2023-04-20T16:46:00.395Z,32.53
2023-04-20T16:51:04.515Z,32.35
2023-04-20T16:57:30.248Z,32.12
2023-04-20T17:02:36.070Z,31.48
2023-04-20T17:16:17.508Z,32.24
2023-04-20T18:01:54.463Z,37.49
2023-04-20T18:14:20.997Z,38.45
2023-04-20T18:27:55.401Z,39.55
2023-04-20T18:40:28.289Z,40.32
2023-04-20T18:45:36.000Z,41.03
2023-04-20T18:51:11.457Z,41.54
2023-04-20T18:57:07.057Z,41.96
2023-04-20T19:09:18.900Z,42.67
2023-04-20T19:14:23.829Z,43.40
2023-04-20T19:19:29.203Z,43.77
2023-04-20T19:24:34.931Z,44.40
2023-04-20T19:29:43.112Z,45.06
2023-04-20T19:39:10.942Z,45.98
2023-04-20T19:44:15.228Z,46.12
2023-04-20T19:49:25.448Z,46.65
2023-04-20T19:54:31.247Z,47.24
2023-04-20T19:59:39.379Z,47.61
2023-04-20T20:04:44.914Z,48.05
2023-04-20T20:09:49.392Z,48.36
2023-04-20T20:14:53.585Z,48.50
2023-04-20T20:20:07.545Z,48.82
2023-04-20T20:25:11.323Z,49.14
2023-04-20T20:30:16.470Z,49.35
2023-04-20T20:35:20.304Z,49.48
2023-04-20T20:55:34.089Z,50.02
2023-04-20T21:01:02.830Z,50.64
2023-04-20T21:06:06.918Z,50.65
2023-04-20T21:11:10.558Z,51.36
2023-04-20T21:17:36.417Z,51.81
2023-04-20T21:37:03.762Z,52.93
2023-04-20T21:42:58.902Z,53.71
2023-04-20T21:48:02.748Z,53.43
2023-04-20T22:01:19.798Z,53.72
2023-04-20T22:07:00.917Z,54.40
2023-04-20T22:12:57.050Z,54.89
2023-04-20T22:18:00.922Z,54.79
2023-04-20T22:30:17.622Z,55.75
2023-04-20T22:35:21.675Z,57.09
2023-04-20T22:40:25.946Z,58.29
2023-04-20T22:52:26.283Z,58.79
2023-04-20T22:58:45.853Z,59.39
2023-04-20T23:03:49.744Z,59.21
2023-04-20T23:08:53.669Z,59.35
2023-04-20T23:28:11.649Z,60.05
2023-04-20T23:37:38.291Z,65.18
2023-04-20T23:42:41.908Z,65.63
2023-04-20T23:48:07.664Z,60.71
2023-04-20T23:53:11.749Z,65.48
2023-04-20T23:58:15.423Z,67.08
